createdAt,value
2018-11-28T00:00:05.356Z,1012.6
2018-11-28T00:01:05.325Z,1012.66
2018-11-28T00:02:05.299Z,1012.62
2018-11-28T00:03:05.276Z,1012.6
2018-11-28T00:04:05.254Z,1012.65
2018-11-28T00:05:05.228Z,1012.67
2018-11-28T00:06:05.206Z,1012.62
2018-11-28T00:07:05.181Z,1012.65
2018-11-28T00:08:05.158Z,1012.59
2018-11-28T00:09:05.132Z,1012.58
2018-11-28T00:10:05.109Z,1012.57
2018-11-28T00:11:05.087Z,1012.6
2018-11-28T00:12:05.066Z,1012.61
2018-11-28T00:13:05.039Z,1012.56
2018-11-28T00:14:05.015Z,1012.53
2018-11-28T00:15:04.990Z,1012.51
2018-11-28T00:16:04.967Z,1012.51
2018-11-28T00:17:04.943Z,1012.48
2018-11-28T00:18:04.921Z,1012.44
2018-11-28T00:19:04.896Z,1012.4
2018-11-28T00:20:04.875Z,1012.36
2018-11-28T00:21:04.851Z,1012.37
2018-11-28T00:22:04.825Z,1012.35
2018-11-28T00:23:04.804Z,1012.36
2018-11-28T00:24:04.778Z,1012.35
2018-11-28T00:25:04.755Z,1012.32
2018-11-28T00:26:04.763Z,1012.28
2018-11-28T00:27:04.707Z,1012.31
2018-11-28T00:28:04.682Z,1012.33
2018-11-28T00:29:04.662Z,1012.3
2018-11-28T00:30:04.635Z,1012.35
2018-11-28T00:31:04.610Z,1012.37
2018-11-28T00:32:04.586Z,1012.35
2018-11-28T00:33:04.572Z,1012.39
2018-11-28T00:34:04.543Z,1012.36
2018-11-28T00:35:04.547Z,1012.38
2018-11-28T00:36:04.492Z,1012.37
2018-11-28T00:37:04.469Z,1012.41
2018-11-28T00:38:04.446Z,1012.42
2018-11-28T00:39:04.419Z,1012.42
2018-11-28T00:40:04.398Z,1012.38
2018-11-28T00:41:04.373Z,1012.41
2018-11-28T00:42:04.352Z,1012.39
2018-11-28T00:43:04.325Z,1012.38
2018-11-28T00:44:04.301Z,1012.38
2018-11-28T00:45:04.278Z,1012.39
2018-11-28T00:46:04.255Z,1012.36
2018-11-28T00:47:04.231Z,1012.34
2018-11-28T00:48:04.206Z,1012.35
2018-11-28T00:49:04.180Z,1012.35
2018-11-28T00:50:04.156Z,1012.35
2018-11-28T00:51:04.135Z,1012.36
2018-11-28T00:52:04.110Z,1012.32
2018-11-28T00:53:04.086Z,1012.35
2018-11-28T00:54:04.064Z,1012.34
2018-11-28T00:55:04.040Z,1012.4
2018-11-28T00:56:04.016Z,1012.33
2018-11-28T00:57:03.989Z,1012.31
2018-11-28T00:58:03.966Z,1012.32
2018-11-28T00:59:03.943Z,1012.3
2018-11-28T01:00:03.918Z,1012.28
2018-11-28T01:01:03.893Z,1012.29
2018-11-28T01:02:03.872Z,1012.3
2018-11-28T01:03:03.846Z,1012.29
2018-11-28T01:04:03.825Z,1012.3
2018-11-28T01:05:03.804Z,1012.28
2018-11-28T01:06:03.780Z,1012.3
2018-11-28T01:07:03.751Z,1012.3
2018-11-28T01:08:03.727Z,1012.33
2018-11-28T01:09:03.705Z,1012.32
2018-11-28T01:10:03.679Z,1012.29
2018-11-28T01:11:03.655Z,1012.27
2018-11-28T01:12:03.632Z,1012.26
2018-11-28T01:13:03.609Z,1012.25
2018-11-28T01:14:03.584Z,1012.29
2018-11-28T01:15:03.558Z,1012.25
2018-11-28T01:16:03.785Z,1012.25
2018-11-28T01:17:03.513Z,1012.26
2018-11-28T01:18:03.489Z,1012.23
2018-11-28T01:19:03.463Z,1012.27
2018-11-28T01:20:03.439Z,1012.22
2018-11-28T01:21:03.431Z,1012.23
2018-11-28T01:22:03.394Z,1012.26
2018-11-28T01:23:03.368Z,1012.21
2018-11-28T01:24:03.346Z,1012.23
2018-11-28T01:25:03.337Z,1012.26
2018-11-28T01:26:03.315Z,1012.28
2018-11-28T01:27:03.271Z,1012.27
2018-11-28T01:28:03.250Z,1012.29
2018-11-28T01:29:03.226Z,1012.3
2018-11-28T01:30:03.212Z,1012.28
2018-11-28T01:31:03.177Z,1012.3
2018-11-28T01:32:03.158Z,1012.32
2018-11-28T01:33:03.127Z,1012.33
2018-11-28T01:34:03.106Z,1012.35
2018-11-28T01:35:03.082Z,1012.32
2018-11-28T01:36:03.058Z,1012.27
2018-11-28T01:37:03.036Z,1012.26
2018-11-28T01:38:03.011Z,1012.2
2018-11-28T01:39:02.984Z,1012.21
2018-11-28T01:40:02.963Z,1012.2
2018-11-28T01:41:02.937Z,1012.14
2018-11-28T01:42:02.916Z,1012.18
2018-11-28T01:43:02.896Z,1012.16
2018-11-28T01:44:02.865Z,1012.13
2018-11-28T01:45:02.841Z,1012.15
2018-11-28T01:46:02.816Z,1012.14
2018-11-28T01:47:02.795Z,1012.12
2018-11-28T01:48:02.772Z,1012.1
2018-11-28T01:49:02.744Z,1012.12
2018-11-28T01:50:02.721Z,1012.12
2018-11-28T01:51:02.697Z,1012.13
2018-11-28T01:52:02.673Z,1012.16
2018-11-28T01:53:02.657Z,1012.14
2018-11-28T01:54:02.624Z,1012.15
2018-11-28T01:55:02.599Z,1012.14
2018-11-28T01:56:02.577Z,1012.1
2018-11-28T01:57:02.551Z,1012.12
2018-11-28T01:58:02.529Z,1012.18
2018-11-28T01:59:02.554Z,1012.18
2018-11-28T02:00:02.481Z,1012.16
2018-11-28T02:01:02.456Z,1012.17
2018-11-28T02:02:02.433Z,1012.14
2018-11-28T02:03:02.408Z,1012.15
2018-11-28T02:04:02.383Z,1012.13
2018-11-28T02:05:02.364Z,1012.11
2018-11-28T02:06:02.336Z,1012.18
2018-11-28T02:07:02.320Z,1012.18
2018-11-28T02:08:02.287Z,1012.18
2018-11-28T02:09:02.264Z,1012.11
2018-11-28T02:10:02.242Z,1012.15
2018-11-28T02:11:02.229Z,1012.21
2018-11-28T02:12:02.195Z,1012.22
2018-11-28T02:13:02.167Z,1012.2
2018-11-28T02:14:02.143Z,1012.23
2018-11-28T02:15:02.119Z,1012.24
2018-11-28T02:16:02.168Z,1012.22
2018-11-28T02:17:02.070Z,1012.21
2018-11-28T02:18:02.047Z,1012.16
2018-11-28T02:19:02.026Z,1012.13
2018-11-28T02:20:02.014Z,1012.16
2018-11-28T02:21:01.999Z,1012.15
2018-11-28T02:22:01.951Z,1012.11
2018-11-28T02:23:01.926Z,1012.1
2018-11-28T02:24:01.904Z,1012.11
2018-11-28T02:25:01.880Z,1012.13
2018-11-28T02:26:01.859Z,1012.12
2018-11-28T02:27:01.831Z,1012.16
2018-11-28T02:28:01.807Z,1012.18
2018-11-28T02:29:01.784Z,1012.18
2018-11-28T02:30:01.767Z,1012.15
2018-11-28T02:31:01.737Z,1012.13
2018-11-28T02:32:01.723Z,1012.12
2018-11-28T02:33:01.690Z,1012.15
2018-11-28T02:34:01.667Z,1012.16
2018-11-28T02:35:01.646Z,1012.18
2018-11-28T02:36:01.617Z,1012.2
2018-11-28T02:37:01.593Z,1012.17
2018-11-28T02:38:01.572Z,1012.16
2018-11-28T02:39:01.545Z,1012.16
2018-11-28T02:40:01.525Z,1012.13
2018-11-28T02:41:01.498Z,1012.12
2018-11-28T02:42:01.487Z,1012.18
2018-11-28T02:43:01.447Z,1012.1
2018-11-28T02:44:01.447Z,1012.07
2018-11-28T02:45:01.401Z,1012.06
2018-11-28T02:46:01.381Z,1012.01
2018-11-28T02:47:01.354Z,1012
2018-11-28T02:48:01.355Z,1012.01
2018-11-28T02:49:01.305Z,1012.04
2018-11-28T02:50:01.282Z,1012.06
2018-11-28T02:51:01.257Z,1012.04
2018-11-28T02:52:01.233Z,1012.08
2018-11-28T02:53:01.211Z,1012.05
2018-11-28T02:54:01.223Z,1012.03
2018-11-28T02:55:01.165Z,1012.04
2018-11-28T02:56:01.138Z,1012.01
2018-11-28T02:57:01.115Z,1012
2018-11-28T02:58:01.090Z,1011.97
2018-11-28T02:59:01.075Z,1011.96
2018-11-28T03:00:01.043Z,1012
2018-11-28T03:01:01.018Z,1011.99
2018-11-28T03:02:01.005Z,1011.93
2018-11-28T03:03:00.972Z,1011.98
2018-11-28T03:04:01.010Z,1011.96
2018-11-28T03:05:00.971Z,1011.99
2018-11-28T03:06:00.900Z,1011.97
2018-11-28T03:07:00.883Z,1011.99
2018-11-28T03:08:00.863Z,1012.04
2018-11-28T03:09:00.831Z,1012.02
2018-11-28T03:10:00.805Z,1012
2018-11-28T03:11:00.786Z,1012
2018-11-28T03:12:00.770Z,1012.02
2018-11-28T03:13:00.737Z,1011.96
2018-11-28T03:14:00.816Z,1012.01
2018-11-28T03:15:00.687Z,1011.98
2018-11-28T03:16:00.865Z,1012.02
2018-11-28T03:17:00.640Z,1011.97
2018-11-28T03:18:00.615Z,1012
2018-11-28T03:19:00.594Z,1012
2018-11-28T03:20:00.568Z,1011.98
2018-11-28T03:21:00.545Z,1011.99
2018-11-28T03:22:00.519Z,1011.99
2018-11-28T03:23:00.497Z,1011.99
2018-11-28T03:24:00.471Z,1011.99
2018-11-28T03:25:00.451Z,1012.03
2018-11-28T03:26:00.424Z,1012.03
2018-11-28T03:27:00.403Z,1012.06
2018-11-28T03:28:00.377Z,1012
2018-11-28T03:29:00.353Z,1012.03
2018-11-28T03:30:00.332Z,1011.98
2018-11-28T03:31:00.305Z,1011.95
2018-11-28T03:32:00.293Z,1011.98
2018-11-28T03:33:00.321Z,1011.98
2018-11-28T03:34:00.233Z,1011.98
2018-11-28T03:35:00.211Z,1011.97
2018-11-28T03:36:00.186Z,1011.98
2018-11-28T03:37:00.166Z,1011.96
2018-11-28T03:38:00.143Z,1011.91
2018-11-28T03:39:00.120Z,1011.91
2018-11-28T03:40:00.092Z,1011.89
2018-11-28T03:41:00.069Z,1011.89
2018-11-28T03:42:00.042Z,1011.89
2018-11-28T03:43:00.019Z,1011.85
2018-11-28T03:43:59.999Z,1011.84
2018-11-28T03:44:59.976Z,1011.84
2018-11-28T03:45:59.948Z,1011.84
2018-11-28T03:46:59.924Z,1011.81
2018-11-28T03:47:59.902Z,1011.81
2018-11-28T03:48:59.880Z,1011.83
2018-11-28T03:49:59.853Z,1011.85
2018-11-28T03:51:00.624Z,1011.85
2018-11-28T03:51:59.806Z,1011.87
2018-11-28T03:52:59.782Z,1011.87
2018-11-28T03:53:59.758Z,1011.86
2018-11-28T03:54:59.739Z,1011.85
2018-11-28T03:55:59.711Z,1011.78
2018-11-28T03:56:59.689Z,1011.74
2018-11-28T03:57:59.664Z,1011.73
2018-11-28T03:58:59.639Z,1011.7
2018-11-28T03:59:59.615Z,1011.7
2018-11-28T04:00:59.594Z,1011.71
2018-11-28T04:01:59.569Z,1011.72
2018-11-28T04:02:59.544Z,1011.69
2018-11-28T04:03:59.526Z,1011.66
2018-11-28T04:04:59.496Z,1011.69
2018-11-28T04:05:59.475Z,1011.67
2018-11-28T04:06:59.450Z,1011.68
2018-11-28T04:07:59.427Z,1011.64
2018-11-28T04:08:59.402Z,1011.62
2018-11-28T04:09:59.379Z,1011.66
2018-11-28T04:10:59.355Z,1011.67
2018-11-28T04:11:59.334Z,1011.65
2018-11-28T04:12:59.309Z,1011.71
2018-11-28T04:13:59.283Z,1011.65
2018-11-28T04:14:59.260Z,1011.67
2018-11-28T04:15:59.235Z,1011.64
2018-11-28T04:16:59.213Z,1011.68
2018-11-28T04:17:59.187Z,1011.67
2018-11-28T04:18:59.215Z,1011.66
2018-11-28T04:19:59.143Z,1011.63
2018-11-28T04:20:59.118Z,1011.65
2018-11-28T04:21:59.094Z,1011.7
2018-11-28T04:22:59.070Z,1011.73
2018-11-28T04:23:59.047Z,1011.74
2018-11-28T04:24:59.030Z,1011.77
2018-11-28T04:25:58.999Z,1011.77
2018-11-28T04:26:58.974Z,1011.84
2018-11-28T04:27:58.955Z,1011.82
2018-11-28T04:28:58.927Z,1011.78
2018-11-28T04:29:58.902Z,1011.83
2018-11-28T04:30:58.880Z,1011.81
2018-11-28T04:31:58.857Z,1011.83
2018-11-28T04:32:58.830Z,1011.8
2018-11-28T04:33:58.806Z,1011.85
2018-11-28T04:34:58.788Z,1011.81
2018-11-28T04:35:58.762Z,1011.8
2018-11-28T04:36:58.737Z,1011.82
2018-11-28T04:37:58.715Z,1011.81
2018-11-28T04:38:58.690Z,1011.82
2018-11-28T04:39:58.665Z,1011.79
2018-11-28T04:40:58.650Z,1011.78
2018-11-28T04:41:58.617Z,1011.77
2018-11-28T04:42:58.595Z,1011.76
2018-11-28T04:43:58.577Z,1011.71
2018-11-28T04:44:58.545Z,1011.78
2018-11-28T04:45:58.523Z,1011.78
2018-11-28T04:46:58.498Z,1011.77
2018-11-28T04:47:58.475Z,1011.8
2018-11-28T04:48:58.463Z,1011.8
2018-11-28T04:49:58.441Z,1011.83
2018-11-28T04:50:58.406Z,1011.8
2018-11-28T04:51:58.382Z,1011.87
2018-11-28T04:52:58.373Z,1011.84
2018-11-28T04:53:58.350Z,1011.81
2018-11-28T04:54:58.309Z,1011.81
2018-11-28T04:55:58.286Z,1011.79
2018-11-28T04:56:58.263Z,1011.8
2018-11-28T04:57:58.240Z,1011.77
2018-11-28T04:58:58.214Z,1011.75
2018-11-28T04:59:58.191Z,1011.78
2018-11-28T05:00:58.169Z,1011.75
2018-11-28T05:01:58.143Z,1011.72
2018-11-28T05:02:58.117Z,1011.68
2018-11-28T05:03:58.097Z,1011.61
2018-11-28T05:04:58.072Z,1011.63
2018-11-28T05:05:58.047Z,1011.62
2018-11-28T05:06:58.023Z,1011.59
2018-11-28T05:07:57.999Z,1011.59
2018-11-28T05:08:57.976Z,1011.59
2018-11-28T05:09:57.955Z,1011.55
2018-11-28T05:10:57.935Z,1011.57
2018-11-28T05:11:57.905Z,1011.53
2018-11-28T05:12:57.889Z,1011.54
2018-11-28T05:13:57.858Z,1011.55
2018-11-28T05:14:57.834Z,1011.53
2018-11-28T05:15:58.013Z,1011.54
2018-11-28T05:16:57.790Z,1011.52
2018-11-28T05:17:57.762Z,1011.58
2018-11-28T05:18:57.738Z,1011.57
2018-11-28T05:19:57.718Z,1011.55
2018-11-28T05:20:57.694Z,1011.59
2018-11-28T05:21:57.668Z,1011.58
2018-11-28T05:22:57.646Z,1011.6
2018-11-28T05:23:57.622Z,1011.58
2018-11-28T05:24:57.600Z,1011.58
2018-11-28T05:25:57.574Z,1011.6
2018-11-28T05:26:57.550Z,1011.58
2018-11-28T05:27:57.526Z,1011.57
2018-11-28T05:28:57.506Z,1011.57
2018-11-28T05:29:57.479Z,1011.54
2018-11-28T05:30:57.455Z,1011.55
2018-11-28T05:31:57.440Z,1011.53
2018-11-28T05:32:57.406Z,1011.51
2018-11-28T05:33:57.384Z,1011.49
2018-11-28T05:34:57.361Z,1011.53
2018-11-28T05:35:57.336Z,1011.56
2018-11-28T05:36:57.311Z,1011.61
2018-11-28T05:37:57.289Z,1011.59
2018-11-28T05:38:57.269Z,1011.59
2018-11-28T05:39:57.244Z,1011.59
2018-11-28T05:40:57.218Z,1011.57
2018-11-28T05:41:57.194Z,1011.63
2018-11-28T05:42:57.171Z,1011.62
2018-11-28T05:43:57.147Z,1011.62
2018-11-28T05:44:57.123Z,1011.61
2018-11-28T05:45:57.100Z,1011.65
2018-11-28T05:46:57.078Z,1011.64
2018-11-28T05:47:57.053Z,1011.63
2018-11-28T05:48:57.029Z,1011.61
2018-11-28T05:49:57.005Z,1011.58
2018-11-28T05:50:56.982Z,1011.59
2018-11-28T05:51:56.959Z,1011.58
2018-11-28T05:52:56.936Z,1011.61
2018-11-28T05:53:56.910Z,1011.65
2018-11-28T05:54:56.969Z,1011.63
2018-11-28T05:55:56.862Z,1011.65
2018-11-28T05:56:56.840Z,1011.67
2018-11-28T05:57:56.817Z,1011.65
2018-11-28T05:58:56.792Z,1011.67
2018-11-28T05:59:56.769Z,1011.63
2018-11-28T06:00:56.747Z,1011.64
2018-11-28T06:01:56.722Z,1011.63
2018-11-28T06:02:56.699Z,1011.64
2018-11-28T06:03:56.676Z,1011.64
2018-11-28T06:04:56.651Z,1011.63
2018-11-28T06:05:56.630Z,1011.65
2018-11-28T06:06:56.605Z,1011.67
2018-11-28T06:07:56.587Z,1011.66
2018-11-28T06:08:56.558Z,1011.64
2018-11-28T06:09:56.534Z,1011.66
2018-11-28T06:10:56.510Z,1011.66
2018-11-28T06:11:56.488Z,1011.65
2018-11-28T06:12:56.467Z,1011.67
2018-11-28T06:13:56.443Z,1011.64
2018-11-28T06:14:56.419Z,1011.59
2018-11-28T06:15:56.446Z,1011.57
2018-11-28T06:16:56.371Z,1011.57
2018-11-28T06:17:56.350Z,1011.58
2018-11-28T06:18:56.329Z,1011.57
2018-11-28T06:19:56.304Z,1011.53
2018-11-28T06:20:56.279Z,1011.49
2018-11-28T06:21:56.253Z,1011.5
2018-11-28T06:22:56.234Z,1011.52
2018-11-28T06:23:56.210Z,1011.5
2018-11-28T06:24:56.183Z,1011.51
2018-11-28T06:25:56.160Z,1011.49
2018-11-28T06:26:56.148Z,1011.53
2018-11-28T06:27:56.116Z,1011.53
2018-11-28T06:28:56.089Z,1011.57
2018-11-28T06:29:56.067Z,1011.55
2018-11-28T06:30:56.044Z,1011.52
2018-11-28T06:31:56.021Z,1011.56
2018-11-28T06:32:55.996Z,1011.51
2018-11-28T06:33:55.973Z,1011.49
2018-11-28T06:34:55.948Z,1011.49
2018-11-28T06:35:55.925Z,1011.5
2018-11-28T06:36:55.903Z,1011.51
2018-11-28T06:37:55.879Z,1011.5
2018-11-28T06:38:55.856Z,1011.53
2018-11-28T06:39:55.833Z,1011.53
2018-11-28T06:40:55.810Z,1011.53
2018-11-28T06:41:55.793Z,1011.55
2018-11-28T06:42:55.761Z,1011.58
2018-11-28T06:43:55.738Z,1011.6
2018-11-28T06:44:55.719Z,1011.6
2018-11-28T06:45:55.713Z,1011.66
2018-11-28T06:46:55.667Z,1011.63
2018-11-28T06:47:55.644Z,1011.61
2018-11-28T06:48:55.621Z,1011.68
2018-11-28T06:49:55.604Z,1011.67
2018-11-28T06:50:55.577Z,1011.7
2018-11-28T06:51:55.565Z,1011.69
2018-11-28T06:52:55.531Z,1011.73
2018-11-28T06:53:55.505Z,1011.69
2018-11-28T06:54:55.480Z,1011.68
2018-11-28T06:55:55.457Z,1011.74
2018-11-28T06:56:55.434Z,1011.77
2018-11-28T06:57:55.414Z,1011.77
2018-11-28T06:58:55.392Z,1011.84
2018-11-28T06:59:55.378Z,1011.79
2018-11-28T07:00:55.346Z,1011.86
2018-11-28T07:01:55.318Z,1011.88
2018-11-28T07:02:55.296Z,1011.89
2018-11-28T07:03:55.272Z,1011.85
2018-11-28T07:04:55.248Z,1011.88
2018-11-28T07:05:55.225Z,1011.9
2018-11-28T07:06:55.202Z,1011.91
2018-11-28T07:07:55.179Z,1011.93
2018-11-28T07:08:55.161Z,1011.93
2018-11-28T07:09:55.133Z,1011.92
2018-11-28T07:10:55.111Z,1011.9
2018-11-28T07:11:55.088Z,1011.94
2018-11-28T07:12:55.061Z,1011.95
2018-11-28T07:13:55.041Z,1011.98
2018-11-28T07:14:55.015Z,1011.97
2018-11-28T07:15:54.993Z,1012.03
2018-11-28T07:16:54.969Z,1012.02
2018-11-28T07:17:54.945Z,1012.07
2018-11-28T07:18:54.923Z,1012.07
2018-11-28T07:19:54.899Z,1012.07
2018-11-28T07:20:54.879Z,1012.09
2018-11-28T07:21:54.855Z,1012.06
2018-11-28T07:22:54.831Z,1012.09
2018-11-28T07:23:54.857Z,1012.06
2018-11-28T07:24:54.833Z,1012.07
2018-11-28T07:25:54.763Z,1012.07
2018-11-28T07:26:54.736Z,1012.07
2018-11-28T07:27:54.715Z,1012.11
2018-11-28T07:28:54.691Z,1012.14
2018-11-28T07:29:54.667Z,1012.16
2018-11-28T07:30:54.648Z,1012.15
2018-11-28T07:31:54.672Z,1012.19
2018-11-28T07:32:54.599Z,1012.21
2018-11-28T07:33:54.575Z,1012.22
2018-11-28T07:34:54.555Z,1012.25
2018-11-28T07:35:54.527Z,1012.28
2018-11-28T07:36:54.505Z,1012.25
2018-11-28T07:37:54.483Z,1012.24
2018-11-28T07:38:54.460Z,1012.22
2018-11-28T07:39:54.436Z,1012.23
2018-11-28T07:40:54.414Z,1012.21
2018-11-28T07:41:54.393Z,1012.2
2018-11-28T07:42:54.369Z,1012.2
2018-11-28T07:43:54.343Z,1012.22
2018-11-28T07:44:54.328Z,1012.26
2018-11-28T07:45:54.297Z,1012.22
2018-11-28T07:46:54.277Z,1012.21
2018-11-28T07:47:54.252Z,1012.24
2018-11-28T07:48:54.229Z,1012.22
2018-11-28T07:49:54.208Z,1012.2
2018-11-28T07:50:54.184Z,1012.25
2018-11-28T07:51:54.163Z,1012.22
2018-11-28T07:52:54.141Z,1012.21
2018-11-28T07:53:54.114Z,1012.16
2018-11-28T07:54:54.099Z,1012.19
2018-11-28T07:55:54.071Z,1012.22
2018-11-28T07:56:54.047Z,1012.2
2018-11-28T07:57:54.026Z,1012.24
2018-11-28T07:58:54.004Z,1012.22
2018-11-28T07:59:53.979Z,1012.26
2018-11-28T08:00:53.957Z,1012.3
2018-11-28T08:01:53.933Z,1012.32
2018-11-28T08:02:53.911Z,1012.32
2018-11-28T08:03:53.889Z,1012.34
2018-11-28T08:04:53.865Z,1012.34
2018-11-28T08:05:53.843Z,1012.34
2018-11-28T08:06:53.819Z,1012.32
2018-11-28T08:07:53.797Z,1012.37
2018-11-28T08:08:53.776Z,1012.37
2018-11-28T08:09:53.752Z,1012.36
2018-11-28T08:10:53.740Z,1012.34
2018-11-28T08:11:53.706Z,1012.35
2018-11-28T08:12:53.686Z,1012.32
2018-11-28T08:13:53.664Z,1012.29
2018-11-28T08:14:53.639Z,1012.34
2018-11-28T08:15:53.615Z,1012.33
2018-11-28T08:16:53.594Z,1012.34
2018-11-28T08:17:53.573Z,1012.32
2018-11-28T08:18:53.548Z,1012.34
2018-11-28T08:19:53.528Z,1012.31
2018-11-28T08:20:53.502Z,1012.33
2018-11-28T08:21:53.480Z,1012.35
2018-11-28T08:22:53.459Z,1012.3
2018-11-28T08:23:53.437Z,1012.33
2018-11-28T08:24:53.415Z,1012.32
2018-11-28T08:25:53.390Z,1012.26
2018-11-28T08:26:53.371Z,1012.24
2018-11-28T08:27:53.345Z,1012.24
2018-11-28T08:28:53.357Z,1012.24
2018-11-28T08:29:53.300Z,1012.23
2018-11-28T08:30:53.278Z,1012.2
2018-11-28T08:31:53.256Z,1012.17
2018-11-28T08:32:53.234Z,1012.19
2018-11-28T08:33:53.214Z,1012.16
2018-11-28T08:34:53.189Z,1012.15
2018-11-28T08:35:53.170Z,1012.16
2018-11-28T08:36:53.157Z,1012.19
2018-11-28T08:37:53.129Z,1012.23
2018-11-28T08:38:53.100Z,1012.19
2018-11-28T08:39:53.080Z,1012.18
2018-11-28T08:40:53.080Z,1012.17
2018-11-28T08:41:53.036Z,1012.15
2018-11-28T08:42:53.014Z,1012.18
2018-11-28T08:43:52.990Z,1012.16
2018-11-28T08:44:53.092Z,1012.15
2018-11-28T08:45:52.947Z,1012.16
2018-11-28T08:46:52.924Z,1012.14
2018-11-28T08:47:52.908Z,1012.13
2018-11-28T08:48:52.884Z,1012.13
2018-11-28T08:49:52.861Z,1012.12
2018-11-28T08:50:52.838Z,1012.14
2018-11-28T08:51:52.821Z,1012.14
2018-11-28T08:52:52.794Z,1012.08
2018-11-28T08:53:52.786Z,1012.06
2018-11-28T08:54:52.748Z,1012.07
2018-11-28T08:55:52.727Z,1012.04
2018-11-28T08:56:52.708Z,1012.02
2018-11-28T08:57:52.730Z,1012.04
2018-11-28T08:58:52.661Z,1012.07
2018-11-28T08:59:52.641Z,1012.03
2018-11-28T09:00:52.621Z,1012.09
2018-11-28T09:01:52.601Z,1012.07
2018-11-28T09:02:52.578Z,1012.1
2018-11-28T09:03:52.557Z,1012.06
2018-11-28T09:04:52.536Z,1012.08
2018-11-28T09:05:52.515Z,1012.05
2018-11-28T09:06:52.492Z,1012.05
2018-11-28T09:07:52.470Z,1012.06
2018-11-28T09:08:52.450Z,1012.04
2018-11-28T09:09:52.430Z,1012.04
2018-11-28T09:10:52.408Z,1012.06
2018-11-28T09:11:52.384Z,1012.13
2018-11-28T09:12:52.364Z,1012.11
2018-11-28T09:13:52.343Z,1012.09
2018-11-28T09:14:52.319Z,1012.14
2018-11-28T09:15:52.300Z,1012.07
2018-11-28T09:16:52.484Z,1012.08
2018-11-28T09:17:52.264Z,1012.09
2018-11-28T09:18:52.238Z,1012.13
2018-11-28T09:19:52.246Z,1012.1
2018-11-28T09:20:52.194Z,1012.12
2018-11-28T09:21:52.175Z,1012.06
2018-11-28T09:22:52.158Z,1012.07
2018-11-28T09:23:52.134Z,1012.07
2018-11-28T09:24:52.114Z,1012.06
2018-11-28T09:25:52.092Z,1012.05
2018-11-28T09:26:52.071Z,1012.08
2018-11-28T09:27:52.049Z,1012.04
2018-11-28T09:28:52.029Z,1012
2018-11-28T09:29:52.009Z,1012.01
2018-11-28T09:30:51.989Z,1012.09
2018-11-28T09:31:51.968Z,1012.11
2018-11-28T09:32:51.949Z,1012.12
2018-11-28T09:33:51.927Z,1012.13
2018-11-28T09:34:51.908Z,1012.14
2018-11-28T09:35:51.937Z,1012.17
2018-11-28T09:36:51.868Z,1012.16
2018-11-28T09:37:51.846Z,1012.16
2018-11-28T09:38:51.824Z,1012.14
2018-11-28T09:39:51.805Z,1012.18
2018-11-28T09:40:51.785Z,1012.16
2018-11-28T09:41:51.817Z,1012.2
2018-11-28T09:42:51.744Z,1012.17
2018-11-28T09:43:51.726Z,1012.17
2018-11-28T09:44:51.704Z,1012.16
2018-11-28T09:45:51.682Z,1012.17
2018-11-28T09:46:51.666Z,1012.2
2018-11-28T09:47:51.644Z,1012.18
2018-11-28T09:48:51.623Z,1012.2
2018-11-28T09:49:51.603Z,1012.19
2018-11-28T09:50:51.586Z,1012.18
2018-11-28T09:51:51.564Z,1012.13
2018-11-28T09:52:51.544Z,1012.16
2018-11-28T09:53:51.526Z,1012.15
2018-11-28T09:54:51.505Z,1012.13
2018-11-28T09:55:51.483Z,1012.1
2018-11-28T09:56:51.466Z,1012.12
2018-11-28T09:57:51.449Z,1012.14
2018-11-28T09:58:51.425Z,1012.05
2018-11-28T09:59:51.404Z,1012.06
2018-11-28T10:00:51.385Z,1012.07
2018-11-28T10:01:51.366Z,1012.04
2018-11-28T10:02:51.347Z,1012.06
2018-11-28T10:03:51.332Z,1012.06
2018-11-28T10:04:51.307Z,1012.06
2018-11-28T10:05:51.291Z,1012.05
2018-11-28T10:06:51.271Z,1012.04
2018-11-28T10:07:51.250Z,1012.02
2018-11-28T10:08:51.231Z,1012.01
2018-11-28T10:09:51.209Z,1011.99
2018-11-28T10:10:51.240Z,1011.97
2018-11-28T10:11:51.171Z,1012.03
2018-11-28T10:12:51.152Z,1011.98
2018-11-28T10:13:51.132Z,1012.01
2018-11-28T10:14:51.122Z,1012
2018-11-28T10:15:51.094Z,1011.97
2018-11-28T10:16:51.623Z,1011.98
2018-11-28T10:17:51.055Z,1011.98
2018-11-28T10:18:51.034Z,1011.98
2018-11-28T10:19:51.054Z,1011.95
2018-11-28T10:20:50.996Z,1011.93
2018-11-28T10:21:50.981Z,1011.94
2018-11-28T10:22:51.006Z,1011.92
2018-11-28T10:23:50.939Z,1011.92
2018-11-28T10:24:50.918Z,1011.9
2018-11-28T10:25:50.922Z,1011.93
2018-11-28T10:26:50.880Z,1011.92
2018-11-28T10:27:50.861Z,1011.89
2018-11-28T10:28:50.844Z,1011.9
2018-11-28T10:29:50.828Z,1011.91
2018-11-28T10:30:50.803Z,1011.9
2018-11-28T10:31:50.788Z,1011.85
2018-11-28T10:32:50.768Z,1011.86
2018-11-28T10:33:50.745Z,1011.81
2018-11-28T10:34:50.727Z,1011.81
2018-11-28T10:35:50.708Z,1011.82
2018-11-28T10:36:50.688Z,1011.8
2018-11-28T10:37:50.671Z,1011.73
2018-11-28T10:38:50.649Z,1011.77
2018-11-28T10:39:50.641Z,1011.75
2018-11-28T10:40:50.611Z,1011.73
2018-11-28T10:41:50.598Z,1011.75
2018-11-28T10:42:50.574Z,1011.8
2018-11-28T10:43:50.555Z,1011.8
2018-11-28T10:44:50.536Z,1011.78
2018-11-28T10:45:50.516Z,1011.79
2018-11-28T10:46:50.496Z,1011.76
2018-11-28T10:47:50.478Z,1011.79
2018-11-28T10:48:50.457Z,1011.73
2018-11-28T10:49:50.441Z,1011.72
2018-11-28T10:50:50.421Z,1011.67
2018-11-28T10:51:50.435Z,1011.7
2018-11-28T10:52:50.383Z,1011.7
2018-11-28T10:53:50.367Z,1011.68
2018-11-28T10:54:50.346Z,1011.66
2018-11-28T10:55:50.324Z,1011.62
2018-11-28T10:56:50.376Z,1011.62
2018-11-28T10:57:50.291Z,1011.63
2018-11-28T10:58:50.272Z,1011.57
2018-11-28T10:59:50.251Z,1011.56
2018-11-28T11:00:50.236Z,1011.56
2018-11-28T11:01:50.215Z,1011.57
2018-11-28T11:02:50.196Z,1011.5
2018-11-28T11:03:50.176Z,1011.5
2018-11-28T11:04:50.167Z,1011.46
2018-11-28T11:05:50.138Z,1011.5
2018-11-28T11:06:50.120Z,1011.49
2018-11-28T11:07:50.101Z,1011.5
2018-11-28T11:08:50.083Z,1011.45
2018-11-28T11:09:50.063Z,1011.47
2018-11-28T11:10:50.043Z,1011.43
2018-11-28T11:11:50.024Z,1011.45
2018-11-28T11:12:50.051Z,1011.41
2018-11-28T11:13:49.988Z,1011.42
2018-11-28T11:14:49.970Z,1011.43
2018-11-28T11:15:49.950Z,1011.37
2018-11-28T11:16:50.136Z,1011.39
2018-11-28T11:17:49.911Z,1011.36
2018-11-28T11:18:49.893Z,1011.35
2018-11-28T11:19:49.882Z,1011.35
2018-11-28T11:20:49.870Z,1011.34
2018-11-28T11:21:49.842Z,1011.35
2018-11-28T11:22:49.823Z,1011.35
2018-11-28T11:23:49.802Z,1011.4
2018-11-28T11:24:49.783Z,1011.4
2018-11-28T11:25:49.764Z,1011.34
2018-11-28T11:26:49.746Z,1011.35
2018-11-28T11:27:49.727Z,1011.37
2018-11-28T11:28:49.708Z,1011.35
2018-11-28T11:29:49.692Z,1011.36
2018-11-28T11:30:49.676Z,1011.39
2018-11-28T11:31:49.655Z,1011.39
2018-11-28T11:32:49.660Z,1011.41
2018-11-28T11:33:49.619Z,1011.41
2018-11-28T11:34:49.611Z,1011.41
2018-11-28T11:35:49.580Z,1011.41
2018-11-28T11:36:49.563Z,1011.4
2018-11-28T11:37:49.546Z,1011.41
2018-11-28T11:38:49.538Z,1011.41
2018-11-28T11:39:49.509Z,1011.41
2018-11-28T11:40:49.491Z,1011.38
2018-11-28T11:41:49.473Z,1011.34
2018-11-28T11:42:49.456Z,1011.33
2018-11-28T11:43:49.446Z,1011.34
2018-11-28T11:44:49.544Z,1011.34
2018-11-28T11:45:49.410Z,1011.35
2018-11-28T11:46:49.381Z,1011.29
2018-11-28T11:47:49.370Z,1011.34
2018-11-28T11:48:49.348Z,1011.27
2018-11-28T11:49:49.334Z,1011.25
2018-11-28T11:50:49.310Z,1011.23
2018-11-28T11:51:49.296Z,1011.19
2018-11-28T11:52:49.280Z,1011.22
2018-11-28T11:53:49.254Z,1011.23
2018-11-28T11:54:49.239Z,1011.22
2018-11-28T11:55:49.219Z,1011.17
2018-11-28T11:56:49.203Z,1011.16
2018-11-28T11:57:49.187Z,1011.16
2018-11-28T11:58:49.165Z,1011.17
2018-11-28T11:59:49.147Z,1011.14
2018-11-28T12:00:49.128Z,1011.1
2018-11-28T12:01:54.524Z,1011.14
2018-11-28T12:02:49.092Z,1011.12
2018-11-28T12:03:49.074Z,1011.11
2018-11-28T12:04:49.056Z,1011.09
2018-11-28T12:05:49.039Z,1011.11
2018-11-28T12:06:49.025Z,1011.08
2018-11-28T12:07:49.001Z,1011.08